메인 페이지
METAR-TAF:

METAR-TAF

공항 :

히스로 공항

런던 / 히드로, 잉글랜드

위도: 51-29N, 경도: 000-27W, 고도: 24m

현재 날씨관측

예보는 31분 전, 04:20시(UTC)에 발표되었습니다.
여러 방향의 바람 3kt
온도 8°C
습도 76%
기압 1034 hPa
시정 10km 이상

METAR: EGLL 220420Z AUTO VRB03KT 9999 NCD 08/04 Q1034 NOSIG

시각: 05:51 (04:51 UTC)

예보

예보는 26분 전, 04:25시(UTC)에 발표되었습니다.
예보 대상 시간: 22일 04시부터 23일 06시까지 (UTC)
10kt
시정 10km 이상
고도 4500ft 상공 구름 조금
일시적
22일 04시부터 22일 06시까지 (UTC)
여러 방향의 바람 4kt
전환 중
22일 15시부터 22일 18시까지 (UTC)
북서6kt

TAF: EGLL 220425Z 2204/2306 01010KT 9999 FEW045 TEMPO 2204/2206 VRB04KT BECMG 2215/2218 31006KT

4,000개 이상의 공항 관측 자료 및 예보 (METAR 및 TAF 보고).

지도상에서 검색 가능한 기상관측소가 노란 점과 빨간 점으로 표시되어 있습니다.

기상관측소 명을 보려면 표시 위로 마우스를 이동하세요.

날씨 관측과 예보를 보려면 클릭하세요.

지도 변경 : 확대하려면 엑스 표시가 있는 녹색 버튼, 축소하려면 빼기 표시가 있는 녹색 버튼, 다음 페이지의 지도를 보려면 녹색 화살표를 클릭하세요.


METAR-TAF: